Time,TemperatureF,DewpointF,PressureIn,WindDirection,WindDirectionDegrees,WindSpeedMPH,WindSpeedGustMPH,Humidity,HourlyPrecipIn,Conditions,Clouds,dailyrainin,SolarRadiationWatts/m^2,SoftwareType,DateUTC
2013-03-28 00:00:00,29.0,21.0,-100.00,SW,225,2.0,-999.0,72,-99.99,,,-99.99,0.000000,,2013-03-28 04:00:00,
2013-03-28 00:42:00,29.0,21.0,-100.00,SW,225,2.0,-999.0,72,-99.99,,,-99.99,0.000000,,2013-03-28 04:42:00,
2013-03-28 00:52:00,29.0,21.0,-100.00,SW,225,2.0,-999.0,72,-99.99,,,-99.99,0.000000,,2013-03-28 04:52:00,
2013-03-28 01:00:00,29.0,21.0,-100.00,SW,225,3.0,-999.0,71,-99.99,,,-99.99,0.000000,,2013-03-28 05:00:00,
2013-03-28 01:43:00,29.0,21.0,-100.00,SW,225,3.0,-999.0,71,-99.99,,,-99.99,0.000000,,2013-03-28 05:43:00,
2013-03-28 01:52:00,29.0,21.0,-100.00,SW,225,3.0,-999.0,71,-99.99,,,-99.99,0.000000,,2013-03-28 05:52:00,
2013-03-28 03:00:00,30.0,22.0,-100.00,WSW,247,2.0,-999.0,73,-99.99,,,-99.99,0.000000,,2013-03-28 07:00:00,
2013-03-28 03:42:00,30.0,22.0,-100.00,WSW,247,2.0,-999.0,73,-99.99,,,-99.99,0.000000,,2013-03-28 07:42:00,
2013-03-28 03:52:00,30.0,22.0,-100.00,WSW,247,2.0,-999.0,73,-99.99,,,-99.99,0.000000,,2013-03-28 07:52:00,
2013-03-28 04:00:00,29.0,22.0,-100.00,SW,225,1.0,-999.0,75,-99.99,,,-99.99,0.000000,,2013-03-28 08:00:00,
2013-03-28 04:42:00,29.0,22.0,-100.00,SW,225,1.0,-999.0,75,-99.99,,,-99.99,0.000000,,2013-03-28 08:42:00,
2013-03-28 04:52:00,29.0,22.0,-100.00,SW,225,1.0,-999.0,75,-99.99,,,-99.99,0.000000,,2013-03-28 08:52:00,
2013-03-28 06:00:00,28.0,22.0,-100.00,SW,225,1.0,-999.0,75,-99.99,,,-99.99,0.000000,,2013-03-28 10:00:00,
2013-03-28 06:43:00,28.0,22.0,-100.00,SW,225,1.0,-999.0,75,-99.99,,,-99.99,0.000000,,2013-03-28 10:43:00,
2013-03-28 06:53:00,28.0,22.0,-100.00,SW,225,1.0,-999.0,75,-99.99,,,-99.99,0.000000,,2013-03-28 10:53:00,
2013-03-28 07:00:00,29.0,23.0,-100.00,WSW,247,1.0,-999.0,77,-99.99,,,-99.99,0.000000,,2013-03-28 11:00:00,
2013-03-28 07:43:00,29.0,23.0,-100.00,WSW,247,1.0,-999.0,77,-99.99,,,-99.99,0.000000,,2013-03-28 11:43:00,
2013-03-28 07:52:00,29.0,23.0,-100.00,WSW,247,1.0,-999.0,77,-99.99,,,-99.99,0.000000,,2013-03-28 11:52:00,
2013-03-28 09:00:00,31.0,26.0,-100.00,WSW,247,3.0,-999.0,80,-99.99,,,-99.99,127.599998,,2013-03-28 13:00:00,
2013-03-28 09:42:00,31.0,26.0,-100.00,WSW,247,3.0,-999.0,80,-99.99,,,-99.99,127.599998,,2013-03-28 13:42:00,
2013-03-28 09:52:00,31.0,26.0,-100.00,WSW,247,3.0,-999.0,80,-99.99,,,-99.99,127.599998,,2013-03-28 13:52:00,
2013-03-28 10:00:00,37.0,28.0,-100.00,WNW,292,5.0,-999.0,70,-99.99,,,-99.99,308.559998,,2013-03-28 14:00:00,
2013-03-28 10:42:00,37.0,28.0,-100.00,WNW,292,5.0,-999.0,70,-99.99,,,-99.99,308.559998,,2013-03-28 14:42:00,
2013-03-28 10:52:00,37.0,28.0,-100.00,WNW,292,5.0,-999.0,70,-99.99,,,-99.99,308.559998,,2013-03-28 14:52:00,
2013-03-28 11:00:00,40.0,27.0,-100.00,WNW,292,7.0,-999.0,59,-99.99,,,-99.99,480.239990,,2013-03-28 15:00:00,
2013-03-28 11:43:00,40.0,27.0,-100.00,WNW,292,7.0,-999.0,59,-99.99,,,-99.99,480.239990,,2013-03-28 15:43:00,
2013-03-28 11:53:00,40.0,27.0,-100.00,WNW,292,7.0,-999.0,59,-99.99,,,-99.99,480.239990,,2013-03-28 15:53:00,
2013-03-28 12:00:00,42.0,26.0,-100.00,NW,315,7.0,-999.0,53,-99.99,,,-99.99,618.280029,,2013-03-28 16:00:00,
2013-03-28 12:42:00,42.0,26.0,-100.00,NW,315,7.0,-999.0,53,-99.99,,,-99.99,618.280029,,2013-03-28 16:42:00,
2013-03-28 12:52:00,42.0,26.0,-100.00,NW,315,7.0,-999.0,53,-99.99,,,-99.99,618.280029,,2013-03-28 16:52:00,
2013-03-28 13:00:00,44.0,26.0,-100.00,WNW,292,6.0,-999.0,48,-99.99,,,-99.99,715.719971,,2013-03-28 17:00:00,
2013-03-28 13:42:00,44.0,26.0,-100.00,WNW,292,6.0,-999.0,48,-99.99,,,-99.99,715.719971,,2013-03-28 17:42:00,
2013-03-28 13:52:00,44.0,26.0,-100.00,WNW,292,6.0,-999.0,48,-99.99,,,-99.99,715.719971,,2013-03-28 17:52:00,
2013-03-28 14:00:00,44.0,21.0,-100.00,WNW,292,8.0,-999.0,38,-99.99,,,-99.99,764.440002,,2013-03-28 18:00:00,
2013-03-28 14:42:00,44.0,21.0,-100.00,WNW,292,8.0,-999.0,38,-99.99,,,-99.99,764.440002,,2013-03-28 18:42:00,
2013-03-28 14:52:00,44.0,21.0,-100.00,WNW,292,8.0,-999.0,38,-99.99,,,-99.99,764.440002,,2013-03-28 18:52:00,
2013-03-28 15:00:00,45.0,23.0,-100.00,WNW,292,8.0,-999.0,41,-99.99,,,-99.99,758.640015,,2013-03-28 19:00:00,
2013-03-28 15:43:00,45.0,23.0,-100.00,WNW,292,8.0,-999.0,41,-99.99,,,-99.99,758.640015,,2013-03-28 19:43:00,
2013-03-28 15:52:00,45.0,23.0,-100.00,WNW,292,8.0,-999.0,41,-99.99,,,-99.99,758.640015,,2013-03-28 19:52:00,
2013-03-28 16:00:00,44.0,20.0,-100.00,WNW,292,9.0,-999.0,37,-99.99,,,-99.99,689.039978,,2013-03-28 20:00:00,
2013-03-28 16:42:00,44.0,20.0,-100.00,WNW,292,9.0,-999.0,37,-99.99,,,-99.99,689.039978,,2013-03-28 20:42:00,
2013-03-28 16:53:00,44.0,20.0,-100.00,WNW,292,9.0,-999.0,37,-99.99,,,-99.99,689.039978,,2013-03-28 20:53:00,
2013-03-28 17:00:00,45.0,18.0,-100.00,WNW,292,8.0,-999.0,34,-99.99,,,-99.99,580.000000,,2013-03-28 21:00:00,
2013-03-28 17:43:00,45.0,18.0,-100.00,WNW,292,8.0,-999.0,34,-99.99,,,-99.99,580.000000,,2013-03-28 21:43:00,
2013-03-28 17:53:00,45.0,18.0,-100.00,WNW,292,8.0,-999.0,34,-99.99,,,-99.99,580.000000,,2013-03-28 21:53:00,
2013-03-28 18:00:00,44.0,17.0,-100.00,WNW,292,8.0,-999.0,33,-99.99,,,-99.99,404.839996,,2013-03-28 22:00:00,
2013-03-28 18:42:00,44.0,17.0,-100.00,WNW,292,8.0,-999.0,33,-99.99,,,-99.99,404.839996,,2013-03-28 22:42:00,
2013-03-28 18:52:00,44.0,17.0,-100.00,WNW,292,8.0,-999.0,33,-99.99,,,-99.99,404.839996,,2013-03-28 22:52:00,
2013-03-28 19:00:00,44.0,16.0,-100.00,NW,315,5.0,-999.0,31,-99.99,,,-99.99,245.919998,,2013-03-28 23:00:00,
2013-03-28 19:42:00,44.0,16.0,-100.00,NW,315,5.0,-999.0,31,-99.99,,,-99.99,245.919998,,2013-03-28 23:42:00,
2013-03-28 19:53:00,44.0,16.0,-100.00,NW,315,5.0,-999.0,31,-99.99,,,-99.99,245.919998,,2013-03-28 23:53:00,
2013-03-28 21:00:00,36.0,18.0,-100.00,North,0,0.0,-999.0,48,-99.99,,,-99.99,1.160000,,2013-03-29 01:00:00,
2013-03-28 21:42:00,36.0,18.0,-100.00,North,0,0.0,-999.0,48,-99.99,,,-99.99,1.160000,,2013-03-29 01:42:00,
2013-03-28 21:52:00,36.0,18.0,-100.00,North,0,0.0,-999.0,48,-99.99,,,-99.99,1.160000,,2013-03-29 01:52:00,
2013-03-28 22:00:00,32.0,18.0,-100.00,North,0,0.0,-999.0,56,-99.99,,,-99.99,0.000000,,2013-03-29 02:00:00,
2013-03-28 22:42:00,32.0,18.0,-100.00,North,0,0.0,-999.0,56,-99.99,,,-99.99,0.000000,,2013-03-29 02:42:00,
2013-03-28 22:53:00,32.0,18.0,-100.00,North,0,0.0,-999.0,56,-99.99,,,-99.99,0.000000,,2013-03-29 02:53:00,
2013-03-28 23:00:00,30.0,20.0,-100.00,SSW,202,0.0,-999.0,65,-99.99,,,-99.99,0.000000,,2013-03-29 03:00:00,
2013-03-28 23:43:00,30.0,20.0,-100.00,SSW,202,0.0,-999.0,65,-99.99,,,-99.99,0.000000,,2013-03-29 03:43:00,
2013-03-28 23:53:00,30.0,20.0,-100.00,SSW,202,0.0,-999.0,65,-99.99,,,-99.99,0.000000,,2013-03-29 03:53:00,